sensor_id;sensor_type;location;lat;lon;timestamp;P1;durP1;ratioP1;P2;durP2;ratioP2
21661;SDS011;10992;48.170;8.596;2022-11-23T00:00:35;5.75;;;2.35;;
21661;SDS011;10992;48.170;8.596;2022-11-23T00:03:03;7.68;;;2.83;;
21661;SDS011;10992;48.170;8.596;2022-11-23T00:05:30;6.85;;;2.83;;
21661;SDS011;10992;48.170;8.596;2022-11-23T00:07:57;9.55;;;2.83;;
21661;SDS011;10992;48.170;8.596;2022-11-23T00:10:24;5.47;;;2.55;;
21661;SDS011;10992;48.170;8.596;2022-11-23T00:12:51;5.93;;;2.47;;
21661;SDS011;10992;48.170;8.596;2022-11-23T00:15:18;6.55;;;2.38;;
21661;SDS011;10992;48.170;8.596;2022-11-23T00:17:46;6.80;;;2.55;;
21661;SDS011;10992;48.170;8.596;2022-11-23T00:20:13;3.97;;;2.22;;
21661;SDS011;10992;48.170;8.596;2022-11-23T00:22:40;5.03;;;2.28;;
21661;SDS011;10992;48.170;8.596;2022-11-23T00:25:07;4.60;;;1.92;;
21661;SDS011;10992;48.170;8.596;2022-11-23T00:27:34;4.43;;;2.13;;
21661;SDS011;10992;48.170;8.596;2022-11-23T00:30:01;6.60;;;2.03;;
21661;SDS011;10992;48.170;8.596;2022-11-23T00:32:28;6.70;;;2.10;;
21661;SDS011;10992;48.170;8.596;2022-11-23T00:34:56;5.90;;;2.40;;
21661;SDS011;10992;48.170;8.596;2022-11-23T00:37:23;7.70;;;2.78;;
21661;SDS011;10992;48.170;8.596;2022-11-23T00:39:54;5.88;;;2.30;;
21661;SDS011;10992;48.170;8.596;2022-11-23T00:42:21;5.57;;;2.17;;
21661;SDS011;10992;48.170;8.596;2022-11-23T00:44:47;4.50;;;1.90;;
21661;SDS011;10992;48.170;8.596;2022-11-23T00:47:14;4.97;;;2.45;;
21661;SDS011;10992;48.170;8.596;2022-11-23T00:49:41;7.53;;;2.08;;
21661;SDS011;10992;48.170;8.596;2022-11-23T00:52:08;7.32;;;2.97;;
21661;SDS011;10992;48.170;8.596;2022-11-23T00:54:35;7.50;;;2.45;;
21661;SDS011;10992;48.170;8.596;2022-11-23T00:57:02;6.97;;;2.60;;
21661;SDS011;10992;48.170;8.596;2022-11-23T00:59:29;10.43;;;2.03;;
21661;SDS011;10992;48.170;8.596;2022-11-23T01:01:58;6.07;;;2.20;;
21661;SDS011;10992;48.170;8.596;2022-11-23T01:04:24;8.50;;;1.88;;
21661;SDS011;10992;48.170;8.596;2022-11-23T01:06:56;8.55;;;2.83;;
21661;SDS011;10992;48.170;8.596;2022-11-23T01:09:22;6.50;;;1.98;;
21661;SDS011;10992;48.170;8.596;2022-11-23T01:11:52;7.03;;;2.47;;
21661;SDS011;10992;48.170;8.596;2022-11-23T01:14:22;5.90;;;2.00;;
21661;SDS011;10992;48.170;8.596;2022-11-23T01:16:49;4.75;;;1.98;;
21661;SDS011;10992;48.170;8.596;2022-11-23T01:19:17;8.07;;;3.67;;
21661;SDS011;10992;48.170;8.596;2022-11-23T01:21:48;7.13;;;3.03;;
21661;SDS011;10992;48.170;8.596;2022-11-23T01:24:19;8.23;;;2.72;;
21661;SDS011;10992;48.170;8.596;2022-11-23T01:26:51;8.35;;;2.40;;
21661;SDS011;10992;48.170;8.596;2022-11-23T01:29:22;5.07;;;2.50;;
21661;SDS011;10992;48.170;8.596;2022-11-23T01:31:49;8.95;;;2.60;;
21661;SDS011;10992;48.170;8.596;2022-11-23T01:34:16;7.40;;;2.75;;
21661;SDS011;10992;48.170;8.596;2022-11-23T01:36:43;5.93;;;2.90;;
21661;SDS011;10992;48.170;8.596;2022-11-23T01:39:10;8.95;;;2.40;;
21661;SDS011;10992;48.170;8.596;2022-11-23T01:41:40;6.95;;;2.33;;
21661;SDS011;10992;48.170;8.596;2022-11-23T01:46:53;9.00;;;3.00;;
21661;SDS011;10992;48.170;8.596;2022-11-23T01:49:21;7.55;;;2.85;;
21661;SDS011;10992;48.170;8.596;2022-11-23T01:51:50;11.52;;;3.78;;
21661;SDS011;10992;48.170;8.596;2022-11-23T01:54:21;9.05;;;2.55;;
21661;SDS011;10992;48.170;8.596;2022-11-23T01:56:53;8.68;;;2.80;;
21661;SDS011;10992;48.170;8.596;2022-11-23T01:59:24;5.22;;;2.70;;
21661;SDS011;10992;48.170;8.596;2022-11-23T02:01:53;3.00;;;2.35;;
21661;SDS011;10992;48.170;8.596;2022-11-23T02:04:24;6.15;;;2.30;;
21661;SDS011;10992;48.170;8.596;2022-11-23T02:06:55;8.20;;;2.25;;
21661;SDS011;10992;48.170;8.596;2022-11-23T02:09:26;11.45;;;2.15;;
21661;SDS011;10992;48.170;8.596;2022-11-23T02:11:56;8.27;;;2.28;;
21661;SDS011;10992;48.170;8.596;2022-11-23T02:14:24;7.63;;;2.85;;
21661;SDS011;10992;48.170;8.596;2022-11-23T02:16:53;9.05;;;2.08;;
21661;SDS011;10992;48.170;8.596;2022-11-23T02:19:29;7.72;;;2.95;;
21661;SDS011;10992;48.170;8.596;2022-11-23T02:22:04;3.92;;;2.28;;
21661;SDS011;10992;48.170;8.596;2022-11-23T02:24:38;8.07;;;2.13;;
21661;SDS011;10992;48.170;8.596;2022-11-23T02:27:12;8.50;;;2.75;;
21661;SDS011;10992;48.170;8.596;2022-11-23T02:29:41;7.68;;;2.30;;
21661;SDS011;10992;48.170;8.596;2022-11-23T02:32:08;6.10;;;2.03;;
21661;SDS011;10992;48.170;8.596;2022-11-23T02:34:35;9.05;;;2.60;;
21661;SDS011;10992;48.170;8.596;2022-11-23T02:37:03;6.68;;;2.42;;
21661;SDS011;10992;48.170;8.596;2022-11-23T02:42:03;4.15;;;2.50;;
21661;SDS011;10992;48.170;8.596;2022-11-23T02:47:12;5.97;;;2.42;;
21661;SDS011;10992;48.170;8.596;2022-11-23T02:49:39;3.85;;;2.13;;
21661;SDS011;10992;48.170;8.596;2022-11-23T02:52:07;8.85;;;3.33;;
21661;SDS011;10992;48.170;8.596;2022-11-23T02:54:34;5.35;;;2.80;;
21661;SDS011;10992;48.170;8.596;2022-11-23T02:57:01;5.50;;;2.50;;
21661;SDS011;10992;48.170;8.596;2022-11-23T02:59:28;7.90;;;2.72;;
21661;SDS011;10992;48.170;8.596;2022-11-23T03:02:02;8.07;;;2.30;;
21661;SDS011;10992;48.170;8.596;2022-11-23T03:04:30;7.30;;;2.63;;
21661;SDS011;10992;48.170;8.596;2022-11-23T03:06:57;8.30;;;2.10;;
21661;SDS011;10992;48.170;8.596;2022-11-23T03:09:24;7.43;;;2.35;;
21661;SDS011;10992;48.170;8.596;2022-11-23T03:11:52;7.15;;;2.35;;
21661;SDS011;10992;48.170;8.596;2022-11-23T03:14:20;9.43;;;2.53;;
21661;SDS011;10992;48.170;8.596;2022-11-23T03:16:52;8.02;;;2.67;;
21661;SDS011;10992;48.170;8.596;2022-11-23T03:19:19;7.13;;;2.50;;
21661;SDS011;10992;48.170;8.596;2022-11-23T03:21:49;10.82;;;4.03;;
21661;SDS011;10992;48.170;8.596;2022-11-23T03:24:16;8.32;;;2.95;;
21661;SDS011;10992;48.170;8.596;2022-11-23T03:26:44;7.18;;;2.45;;
21661;SDS011;10992;48.170;8.596;2022-11-23T03:29:17;5.63;;;2.55;;
21661;SDS011;10992;48.170;8.596;2022-11-23T03:31:43;6.82;;;2.88;;
21661;SDS011;10992;48.170;8.596;2022-11-23T03:34:13;10.52;;;2.45;;
21661;SDS011;10992;48.170;8.596;2022-11-23T03:36:41;8.52;;;2.28;;
21661;SDS011;10992;48.170;8.596;2022-11-23T03:39:08;5.50;;;2.30;;
21661;SDS011;10992;48.170;8.596;2022-11-23T03:41:55;7.60;;;2.42;;
21661;SDS011;10992;48.170;8.596;2022-11-23T03:44:29;4.75;;;2.63;;
21661;SDS011;10992;48.170;8.596;2022-11-23T03:46:55;4.03;;;2.45;;
21661;SDS011;10992;48.170;8.596;2022-11-23T03:49:23;4.75;;;2.30;;
21661;SDS011;10992;48.170;8.596;2022-11-23T03:51:51;5.80;;;2.63;;
21661;SDS011;10992;48.170;8.596;2022-11-23T03:54:17;7.60;;;2.35;;
21661;SDS011;10992;48.170;8.596;2022-11-23T03:56:44;5.50;;;3.00;;
21661;SDS011;10992;48.170;8.596;2022-11-23T03:59:11;5.93;;;2.20;;
21661;SDS011;10992;48.170;8.596;2022-11-23T04:01:38;6.70;;;2.47;;
21661;SDS011;10992;48.170;8.596;2022-11-23T04:04:11;5.50;;;2.63;;
21661;SDS011;10992;48.170;8.596;2022-11-23T04:07:00;7.97;;;2.40;;
21661;SDS011;10992;48.170;8.596;2022-11-23T04:09:33;4.38;;;2.25;;
21661;SDS011;10992;48.170;8.596;2022-11-23T04:12:03;6.43;;;2.63;;
21661;SDS011;10992;48.170;8.596;2022-11-23T04:14:30;6.38;;;2.53;;
21661;SDS011;10992;48.170;8.596;2022-11-23T04:16:58;7.22;;;2.47;;
21661;SDS011;10992;48.170;8.596;2022-11-23T04:19:26;11.30;;;3.60;;
21661;SDS011;10992;48.170;8.596;2022-11-23T04:21:54;8.18;;;2.70;;
21661;SDS011;10992;48.170;8.596;2022-11-23T04:24:21;11.05;;;2.92;;
21661;SDS011;10992;48.170;8.596;2022-11-23T04:26:50;5.25;;;3.08;;
21661;SDS011;10992;48.170;8.596;2022-11-23T04:29:17;5.63;;;2.50;;
21661;SDS011;10992;48.170;8.596;2022-11-23T04:31:50;11.13;;;3.03;;
21661;SDS011;10992;48.170;8.596;2022-11-23T04:34:17;9.50;;;2.58;;
21661;SDS011;10992;48.170;8.596;2022-11-23T04:36:46;10.48;;;3.03;;
21661;SDS011;10992;48.170;8.596;2022-11-23T04:39:14;8.20;;;3.08;;
21661;SDS011;10992;48.170;8.596;2022-11-23T04:42:00;8.20;;;3.22;;
21661;SDS011;10992;48.170;8.596;2022-11-23T04:44:28;10.65;;;3.03;;
21661;SDS011;10992;48.170;8.596;2022-11-23T04:47:00;4.03;;;2.63;;
21661;SDS011;10992;48.170;8.596;2022-11-23T04:49:28;4.93;;;2.40;;
21661;SDS011;10992;48.170;8.596;2022-11-23T04:51:55;5.80;;;2.75;;
21661;SDS011;10992;48.170;8.596;2022-11-23T04:54:29;5.20;;;2.80;;
21661;SDS011;10992;48.170;8.596;2022-11-23T04:56:59;8.43;;;2.83;;
21661;SDS011;10992;48.170;8.596;2022-11-23T04:59:26;5.97;;;2.92;;
21661;SDS011;10992;48.170;8.596;2022-11-23T05:01:55;6.70;;;2.80;;
21661;SDS011;10992;48.170;8.596;2022-11-23T05:04:40;6.57;;;2.92;;
21661;SDS011;10992;48.170;8.596;2022-11-23T05:07:08;9.45;;;2.83;;
21661;SDS011;10992;48.170;8.596;2022-11-23T05:09:38;4.78;;;2.80;;
21661;SDS011;10992;48.170;8.596;2022-11-23T05:12:11;3.33;;;2.50;;
21661;SDS011;10992;48.170;8.596;2022-11-23T05:14:38;5.25;;;2.78;;
21661;SDS011;10992;48.170;8.596;2022-11-23T05:17:07;6.10;;;3.58;;
21661;SDS011;10992;48.170;8.596;2022-11-23T05:19:38;10.80;;;4.45;;
21661;SDS011;10992;48.170;8.596;2022-11-23T05:22:04;9.43;;;4.10;;
21661;SDS011;10992;48.170;8.596;2022-11-23T05:24:34;10.07;;;4.80;;
21661;SDS011;10992;48.170;8.596;2022-11-23T05:27:12;8.70;;;4.10;;
21661;SDS011;10992;48.170;8.596;2022-11-23T05:29:39;13.15;;;5.30;;
21661;SDS011;10992;48.170;8.596;2022-11-23T05:32:06;18.33;;;10.60;;
21661;SDS011;10992;48.170;8.596;2022-11-23T05:34:33;16.42;;;8.80;;
21661;SDS011;10992;48.170;8.596;2022-11-23T05:37:02;12.00;;;7.72;;
21661;SDS011;10992;48.170;8.596;2022-11-23T05:39:29;16.55;;;9.40;;
21661;SDS011;10992;48.170;8.596;2022-11-23T05:41:58;14.15;;;8.63;;
21661;SDS011;10992;48.170;8.596;2022-11-23T05:44:38;19.65;;;9.32;;
21661;SDS011;10992;48.170;8.596;2022-11-23T05:47:10;21.83;;;9.50;;
21661;SDS011;10992;48.170;8.596;2022-11-23T05:49:38;17.58;;;9.40;;
21661;SDS011;10992;48.170;8.596;2022-11-23T05:52:05;14.23;;;7.75;;
21661;SDS011;10992;48.170;8.596;2022-11-23T05:54:34;15.02;;;8.40;;
21661;SDS011;10992;48.170;8.596;2022-11-23T05:57:06;14.40;;;8.60;;
21661;SDS011;10992;48.170;8.596;2022-11-23T05:59:36;15.00;;;7.88;;
21661;SDS011;10992;48.170;8.596;2022-11-23T06:02:03;23.80;;;9.05;;
21661;SDS011;10992;48.170;8.596;2022-11-23T06:04:33;15.20;;;8.45;;
21661;SDS011;10992;48.170;8.596;2022-11-23T06:07:06;20.13;;;9.20;;
21661;SDS011;10992;48.170;8.596;2022-11-23T06:09:58;19.88;;;9.20;;
21661;SDS011;10992;48.170;8.596;2022-11-23T06:12:26;16.75;;;9.68;;
21661;SDS011;10992;48.170;8.596;2022-11-23T06:14:56;20.90;;;9.13;;
21661;SDS011;10992;48.170;8.596;2022-11-23T06:17:24;21.88;;;10.02;;
21661;SDS011;10992;48.170;8.596;2022-11-23T06:19:57;30.60;;;11.38;;
21661;SDS011;10992;48.170;8.596;2022-11-23T06:22:23;26.45;;;12.00;;
21661;SDS011;10992;48.170;8.596;2022-11-23T06:24:58;24.10;;;11.38;;
21661;SDS011;10992;48.170;8.596;2022-11-23T06:27:34;31.33;;;13.18;;
21661;SDS011;10992;48.170;8.596;2022-11-23T06:30:07;24.75;;;12.45;;
21661;SDS011;10992;48.170;8.596;2022-11-23T06:32:36;21.20;;;11.07;;
21661;SDS011;10992;48.170;8.596;2022-11-23T06:35:03;20.50;;;8.80;;
21661;SDS011;10992;48.170;8.596;2022-11-23T06:37:33;18.00;;;9.57;;
21661;SDS011;10992;48.170;8.596;2022-11-23T06:40:00;25.63;;;11.00;;
21661;SDS011;10992;48.170;8.596;2022-11-23T06:42:27;21.00;;;12.00;;
21661;SDS011;10992;48.170;8.596;2022-11-23T06:45:08;23.55;;;13.98;;
21661;SDS011;10992;48.170;8.596;2022-11-23T06:47:36;22.25;;;13.68;;
21661;SDS011;10992;48.170;8.596;2022-11-23T06:50:03;22.48;;;10.48;;
21661;SDS011;10992;48.170;8.596;2022-11-23T06:52:31;40.03;;;15.07;;
21661;SDS011;10992;48.170;8.596;2022-11-23T06:54:58;36.17;;;15.25;;
21661;SDS011;10992;48.170;8.596;2022-11-23T06:57:25;39.47;;;16.05;;
21661;SDS011;10992;48.170;8.596;2022-11-23T06:59:53;41.70;;;17.98;;
21661;SDS011;10992;48.170;8.596;2022-11-23T07:02:26;43.25;;;18.27;;
21661;SDS011;10992;48.170;8.596;2022-11-23T07:04:55;55.92;;;21.33;;
21661;SDS011;10992;48.170;8.596;2022-11-23T07:07:23;63.08;;;21.45;;
21661;SDS011;10992;48.170;8.596;2022-11-23T07:09:59;56.55;;;20.05;;
21661;SDS011;10992;48.170;8.596;2022-11-23T07:12:41;47.65;;;22.50;;
21661;SDS011;10992;48.170;8.596;2022-11-23T07:15:10;51.80;;;23.73;;
21661;SDS011;10992;48.170;8.596;2022-11-23T07:17:39;46.33;;;21.23;;
21661;SDS011;10992;48.170;8.596;2022-11-23T07:20:08;45.80;;;19.45;;
21661;SDS011;10992;48.170;8.596;2022-11-23T07:22:36;39.47;;;19.33;;
21661;SDS011;10992;48.170;8.596;2022-11-23T07:25:04;36.25;;;18.10;;
21661;SDS011;10992;48.170;8.596;2022-11-23T07:27:31;39.92;;;17.35;;
21661;SDS011;10992;48.170;8.596;2022-11-23T07:30:00;36.47;;;17.77;;
21661;SDS011;10992;48.170;8.596;2022-11-23T07:32:27;34.05;;;17.88;;
21661;SDS011;10992;48.170;8.596;2022-11-23T07:34:54;40.03;;;19.45;;
21661;SDS011;10992;48.170;8.596;2022-11-23T07:37:21;36.83;;;18.60;;
21661;SDS011;10992;48.170;8.596;2022-11-23T07:39:48;37.83;;;18.65;;
21661;SDS011;10992;48.170;8.596;2022-11-23T07:42:27;41.75;;;18.17;;
21661;SDS011;10992;48.170;8.596;2022-11-23T07:45:05;38.55;;;18.98;;
21661;SDS011;10992;48.170;8.596;2022-11-23T07:47:35;35.42;;;16.77;;
21661;SDS011;10992;48.170;8.596;2022-11-23T07:50:02;36.83;;;18.80;;
21661;SDS011;10992;48.170;8.596;2022-11-23T07:52:30;36.95;;;17.75;;
21661;SDS011;10992;48.170;8.596;2022-11-23T07:54:56;37.80;;;18.80;;
21661;SDS011;10992;48.170;8.596;2022-11-23T07:57:26;38.03;;;17.23;;
21661;SDS011;10992;48.170;8.596;2022-11-23T07:59:53;29.85;;;16.48;;
21661;SDS011;10992;48.170;8.596;2022-11-23T08:02:19;35.45;;;17.42;;
21661;SDS011;10992;48.170;8.596;2022-11-23T08:04:46;33.65;;;16.90;;
21661;SDS011;10992;48.170;8.596;2022-11-23T08:07:13;36.42;;;17.20;;
21661;SDS011;10992;48.170;8.596;2022-11-23T08:09:40;28.60;;;15.43;;
21661;SDS011;10992;48.170;8.596;2022-11-23T08:12:07;28.60;;;13.70;;
21661;SDS011;10992;48.170;8.596;2022-11-23T08:14:34;24.40;;;13.88;;
21661;SDS011;10992;48.170;8.596;2022-11-23T08:17:01;23.15;;;13.60;;
21661;SDS011;10992;48.170;8.596;2022-11-23T08:19:28;24.98;;;13.57;;
21661;SDS011;10992;48.170;8.596;2022-11-23T08:21:55;22.67;;;12.05;;
21661;SDS011;10992;48.170;8.596;2022-11-23T08:24:22;20.95;;;12.77;;
21661;SDS011;10992;48.170;8.596;2022-11-23T08:26:49;20.50;;;11.48;;
21661;SDS011;10992;48.170;8.596;2022-11-23T08:29:15;22.65;;;10.85;;
21661;SDS011;10992;48.170;8.596;2022-11-23T08:31:42;17.65;;;10.55;;
21661;SDS011;10992;48.170;8.596;2022-11-23T08:34:09;21.40;;;12.27;;
21661;SDS011;10992;48.170;8.596;2022-11-23T08:36:36;20.20;;;10.43;;
21661;SDS011;10992;48.170;8.596;2022-11-23T08:39:03;18.30;;;9.60;;
21661;SDS011;10992;48.170;8.596;2022-11-23T08:41:30;17.58;;;10.10;;
21661;SDS011;10992;48.170;8.596;2022-11-23T08:43:57;16.55;;;8.60;;
21661;SDS011;10992;48.170;8.596;2022-11-23T08:46:24;18.35;;;9.15;;
21661;SDS011;10992;48.170;8.596;2022-11-23T08:48:51;16.67;;;9.23;;
21661;SDS011;10992;48.170;8.596;2022-11-23T08:51:18;14.48;;;8.50;;
21661;SDS011;10992;48.170;8.596;2022-11-23T08:53:48;11.63;;;8.05;;
21661;SDS011;10992;48.170;8.596;2022-11-23T08:56:15;15.75;;;8.30;;
21661;SDS011;10992;48.170;8.596;2022-11-23T08:58:43;16.02;;;9.30;;
21661;SDS011;10992;48.170;8.596;2022-11-23T09:01:11;19.40;;;8.45;;
21661;SDS011;10992;48.170;8.596;2022-11-23T09:03:40;10.82;;;7.55;;
21661;SDS011;10992;48.170;8.596;2022-11-23T09:06:12;14.00;;;8.48;;
21661;SDS011;10992;48.170;8.596;2022-11-23T09:08:39;14.88;;;8.38;;
21661;SDS011;10992;48.170;8.596;2022-11-23T09:11:06;15.27;;;9.25;;
21661;SDS011;10992;48.170;8.596;2022-11-23T09:13:35;14.77;;;7.75;;
21661;SDS011;10992;48.170;8.596;2022-11-23T09:16:03;10.77;;;7.18;;
21661;SDS011;10992;48.170;8.596;2022-11-23T09:18:31;16.23;;;8.25;;
21661;SDS011;10992;48.170;8.596;2022-11-23T09:21:04;9.10;;;7.57;;
21661;SDS011;10992;48.170;8.596;2022-11-23T09:23:31;10.95;;;6.78;;
21661;SDS011;10992;48.170;8.596;2022-11-23T09:25:59;10.55;;;6.93;;
21661;SDS011;10992;48.170;8.596;2022-11-23T09:28:27;10.98;;;6.75;;
21661;SDS011;10992;48.170;8.596;2022-11-23T09:30:55;10.52;;;7.00;;
21661;SDS011;10992;48.170;8.596;2022-11-23T09:33:22;10.88;;;6.95;;
21661;SDS011;10992;48.170;8.596;2022-11-23T09:36:00;12.57;;;6.65;;
21661;SDS011;10992;48.170;8.596;2022-11-23T09:38:28;11.52;;;7.20;;
21661;SDS011;10992;48.170;8.596;2022-11-23T09:44:03;10.25;;;6.10;;
21661;SDS011;10992;48.170;8.596;2022-11-23T09:49:31;8.25;;;5.90;;
21661;SDS011;10992;48.170;8.596;2022-11-23T09:52:18;9.55;;;5.25;;
21661;SDS011;10992;48.170;8.596;2022-11-23T09:54:50;7.07;;;4.90;;
21661;SDS011;10992;48.170;8.596;2022-11-23T09:57:22;10.77;;;5.30;;
21661;SDS011;10992;48.170;8.596;2022-11-23T10:00:06;7.88;;;5.03;;
21661;SDS011;10992;48.170;8.596;2022-11-23T10:02:43;9.55;;;4.60;;
21661;SDS011;10992;48.170;8.596;2022-11-23T10:05:13;7.38;;;4.38;;
21661;SDS011;10992;48.170;8.596;2022-11-23T10:10:48;9.55;;;5.10;;
21661;SDS011;10992;48.170;8.596;2022-11-23T10:24:52;6.85;;;3.55;;
21661;SDS011;10992;48.170;8.596;2022-11-23T10:27:20;6.35;;;2.78;;
21661;SDS011;10992;48.170;8.596;2022-11-23T10:29:49;5.32;;;3.22;;
21661;SDS011;10992;48.170;8.596;2022-11-23T10:32:33;5.10;;;2.95;;
21661;SDS011;10992;48.170;8.596;2022-11-23T10:35:27;5.60;;;3.13;;
21661;SDS011;10992;48.170;8.596;2022-11-23T10:38:09;4.13;;;2.88;;
21661;SDS011;10992;48.170;8.596;2022-11-23T10:49:55;5.30;;;2.28;;
21661;SDS011;10992;48.170;8.596;2022-11-23T10:51:56;5.18;;;2.60;;
21661;SDS011;10992;48.170;8.596;2022-11-23T10:57:49;7.00;;;2.75;;
21661;SDS011;10992;48.170;8.596;2022-11-23T11:02:28;3.28;;;2.00;;
21661;SDS011;10992;48.170;8.596;2022-11-23T11:08:17;6.85;;;2.17;;
21661;SDS011;10992;48.170;8.596;2022-11-23T11:10:46;5.35;;;2.20;;
21661;SDS011;10992;48.170;8.596;2022-11-23T11:13:32;3.70;;;2.05;;
21661;SDS011;10992;48.170;8.596;2022-11-23T11:16:05;3.63;;;1.50;;
21661;SDS011;10992;48.170;8.596;2022-11-23T11:18:44;4.20;;;1.95;;
21661;SDS011;10992;48.170;8.596;2022-11-23T11:23:53;3.15;;;1.70;;
21661;SDS011;10992;48.170;8.596;2022-11-23T11:26:26;3.50;;;2.17;;
21661;SDS011;10992;48.170;8.596;2022-11-23T11:28:56;5.22;;;2.25;;
21661;SDS011;10992;48.170;8.596;2022-11-23T11:31:29;3.97;;;1.90;;
21661;SDS011;10992;48.170;8.596;2022-11-23T11:34:18;3.67;;;1.80;;
21661;SDS011;10992;48.170;8.596;2022-11-23T11:39:45;3.75;;;1.85;;
21661;SDS011;10992;48.170;8.596;2022-11-23T11:42:17;3.13;;;2.35;;
21661;SDS011;10992;48.170;8.596;2022-11-23T11:44:49;3.58;;;2.03;;
21661;SDS011;10992;48.170;8.596;2022-11-23T11:47:22;7.10;;;2.88;;
21661;SDS011;10992;48.170;8.596;2022-11-23T11:49:55;3.03;;;1.70;;
21661;SDS011;10992;48.170;8.596;2022-11-23T11:52:27;3.63;;;1.75;;
21661;SDS011;10992;48.170;8.596;2022-11-23T11:55:13;5.78;;;2.40;;
21661;SDS011;10992;48.170;8.596;2022-11-23T11:57:54;4.30;;;1.75;;
21661;SDS011;10992;48.170;8.596;2022-11-23T12:00:27;3.50;;;1.50;;
21661;SDS011;10992;48.170;8.596;2022-11-23T12:05:43;2.10;;;1.00;;
21661;SDS011;10992;48.170;8.596;2022-11-23T12:11:01;2.67;;;1.38;;
21661;SDS011;10992;48.170;8.596;2022-11-23T12:13:31;2.28;;;1.33;;
21661;SDS011;10992;48.170;8.596;2022-11-23T12:16:21;2.67;;;1.10;;
21661;SDS011;10992;48.170;8.596;2022-11-23T12:19:12;3.22;;;1.30;;
21661;SDS011;10992;48.170;8.596;2022-11-23T12:24:48;3.25;;;1.40;;
21661;SDS011;10992;48.170;8.596;2022-11-23T12:38:53;4.07;;;1.30;;
21661;SDS011;10992;48.170;8.596;2022-11-23T12:58:42;1.92;;;0.95;;
21661;SDS011;10992;48.170;8.596;2022-11-23T13:01:13;1.25;;;0.88;;
21661;SDS011;10992;48.170;8.596;2022-11-23T13:04:08;1.98;;;0.93;;
21661;SDS011;10992;48.170;8.596;2022-11-23T13:18:16;4.75;;;0.95;;
21661;SDS011;10992;48.170;8.596;2022-11-23T13:23:22;2.75;;;1.02;;
21661;SDS011;10992;48.170;8.596;2022-11-23T13:28:39;2.42;;;1.10;;
21661;SDS011;10992;48.170;8.596;2022-11-23T13:33:42;4.07;;;1.48;;
21661;SDS011;10992;48.170;8.596;2022-11-23T13:36:11;6.15;;;1.13;;
21661;SDS011;10992;48.170;8.596;2022-11-23T13:42:16;2.00;;;1.13;;
21661;SDS011;10992;48.170;8.596;2022-11-23T13:44:44;2.47;;;1.30;;
21661;SDS011;10992;48.170;8.596;2022-11-23T13:47:17;7.43;;;1.10;;
21661;SDS011;10992;48.170;8.596;2022-11-23T13:49:46;2.13;;;1.17;;
21661;SDS011;10992;48.170;8.596;2022-11-23T13:57:20;2.45;;;1.27;;
21661;SDS011;10992;48.170;8.596;2022-11-23T13:59:48;3.65;;;1.00;;
21661;SDS011;10992;48.170;8.596;2022-11-23T14:02:26;1.75;;;1.08;;
21661;SDS011;10992;48.170;8.596;2022-11-23T14:07:55;1.67;;;1.20;;
21661;SDS011;10992;48.170;8.596;2022-11-23T14:10:28;2.20;;;1.05;;
21661;SDS011;10992;48.170;8.596;2022-11-23T14:15:34;2.15;;;0.90;;
21661;SDS011;10992;48.170;8.596;2022-11-23T14:18:16;2.45;;;0.68;;
21661;SDS011;10992;48.170;8.596;2022-11-23T14:23:45;2.40;;;0.90;;
21661;SDS011;10992;48.170;8.596;2022-11-23T14:29:40;3.15;;;1.38;;
21661;SDS011;10992;48.170;8.596;2022-11-23T14:43:56;2.70;;;1.10;;
21661;SDS011;10992;48.170;8.596;2022-11-23T14:46:25;3.00;;;0.90;;
21661;SDS011;10992;48.170;8.596;2022-11-23T14:49:01;3.88;;;1.17;;
21661;SDS011;10992;48.170;8.596;2022-11-23T14:51:33;2.45;;;1.25;;
21661;SDS011;10992;48.170;8.596;2022-11-23T14:54:05;3.88;;;1.20;;
21661;SDS011;10992;48.170;8.596;2022-11-23T14:59:04;4.00;;;1.88;;
21661;SDS011;10992;48.170;8.596;2022-11-23T15:01:33;4.90;;;1.45;;
21661;SDS011;10992;48.170;8.596;2022-11-23T15:04:08;5.35;;;1.40;;
21661;SDS011;10992;48.170;8.596;2022-11-23T15:06:46;1.60;;;1.10;;
21661;SDS011;10992;48.170;8.596;2022-11-23T15:09:31;3.00;;;1.40;;
21661;SDS011;10992;48.170;8.596;2022-11-23T15:12:27;2.15;;;1.38;;
21661;SDS011;10992;48.170;8.596;2022-11-23T15:15:23;1.85;;;1.10;;
21661;SDS011;10992;48.170;8.596;2022-11-23T15:17:58;2.55;;;1.25;;
21661;SDS011;10992;48.170;8.596;2022-11-23T15:20:33;4.00;;;1.63;;
21661;SDS011;10992;48.170;8.596;2022-11-23T15:23:10;2.92;;;1.60;;
21661;SDS011;10992;48.170;8.596;2022-11-23T15:26:04;3.47;;;1.48;;
21661;SDS011;10992;48.170;8.596;2022-11-23T15:28:57;11.25;;;4.20;;
21661;SDS011;10992;48.170;8.596;2022-11-23T15:31:26;4.53;;;2.47;;
21661;SDS011;10992;48.170;8.596;2022-11-23T15:33:59;5.43;;;2.83;;
21661;SDS011;10992;48.170;8.596;2022-11-23T15:36:41;4.55;;;2.20;;
21661;SDS011;10992;48.170;8.596;2022-11-23T15:39:13;4.80;;;2.00;;
21661;SDS011;10992;48.170;8.596;2022-11-23T15:41:43;3.88;;;1.45;;
21661;SDS011;10992;48.170;8.596;2022-11-23T15:44:14;3.35;;;2.00;;
21661;SDS011;10992;48.170;8.596;2022-11-23T15:46:46;4.60;;;2.13;;
21661;SDS011;10992;48.170;8.596;2022-11-23T15:49:14;3.47;;;1.80;;
21661;SDS011;10992;48.170;8.596;2022-11-23T15:51:43;6.40;;;2.92;;
21661;SDS011;10992;48.170;8.596;2022-11-23T15:54:19;7.63;;;2.65;;
21661;SDS011;10992;48.170;8.596;2022-11-23T15:56:48;3.90;;;2.35;;
21661;SDS011;10992;48.170;8.596;2022-11-23T16:02:23;5.28;;;2.28;;
21661;SDS011;10992;48.170;8.596;2022-11-23T16:07:54;4.50;;;2.30;;
21661;SDS011;10992;48.170;8.596;2022-11-23T16:10:30;4.90;;;2.67;;
21661;SDS011;10992;48.170;8.596;2022-11-23T16:12:59;6.25;;;2.80;;
21661;SDS011;10992;48.170;8.596;2022-11-23T16:17:55;5.85;;;2.67;;
21661;SDS011;10992;48.170;8.596;2022-11-23T16:20:23;7.00;;;2.83;;
21661;SDS011;10992;48.170;8.596;2022-11-23T16:22:51;6.47;;;4.80;;
21661;SDS011;10992;48.170;8.596;2022-11-23T16:25:29;4.80;;;3.08;;
21661;SDS011;10992;48.170;8.596;2022-11-23T16:30:54;4.45;;;3.03;;
21661;SDS011;10992;48.170;8.596;2022-11-23T16:33:21;4.70;;;3.55;;
21661;SDS011;10992;48.170;8.596;2022-11-23T16:35:49;5.72;;;3.38;;
21661;SDS011;10992;48.170;8.596;2022-11-23T16:38:16;5.15;;;3.88;;
21661;SDS011;10992;48.170;8.596;2022-11-23T16:40:44;7.72;;;4.05;;
21661;SDS011;10992;48.170;8.596;2022-11-23T16:43:13;5.68;;;3.65;;
21661;SDS011;10992;48.170;8.596;2022-11-23T16:45:42;8.27;;;5.18;;
21661;SDS011;10992;48.170;8.596;2022-11-23T16:50:53;6.78;;;4.80;;
21661;SDS011;10992;48.170;8.596;2022-11-23T16:53:21;7.88;;;4.97;;
21661;SDS011;10992;48.170;8.596;2022-11-23T16:55:54;8.52;;;5.35;;
21661;SDS011;10992;48.170;8.596;2022-11-23T16:58:23;8.77;;;5.57;;
21661;SDS011;10992;48.170;8.596;2022-11-23T17:00:55;11.13;;;5.97;;
21661;SDS011;10992;48.170;8.596;2022-11-23T17:03:22;9.35;;;6.03;;
21661;SDS011;10992;48.170;8.596;2022-11-23T17:05:49;12.70;;;6.65;;
21661;SDS011;10992;48.170;8.596;2022-11-23T17:08:16;10.43;;;6.53;;
21661;SDS011;10992;48.170;8.596;2022-11-23T17:10:48;17.80;;;7.75;;
21661;SDS011;10992;48.170;8.596;2022-11-23T17:13:23;9.90;;;7.00;;
21661;SDS011;10992;48.170;8.596;2022-11-23T17:15:53;11.40;;;6.97;;
21661;SDS011;10992;48.170;8.596;2022-11-23T17:18:20;11.18;;;7.30;;
21661;SDS011;10992;48.170;8.596;2022-11-23T17:20:47;12.85;;;7.35;;
21661;SDS011;10992;48.170;8.596;2022-11-23T17:23:14;14.10;;;7.47;;
21661;SDS011;10992;48.170;8.596;2022-11-23T17:25:41;11.15;;;7.82;;
21661;SDS011;10992;48.170;8.596;2022-11-23T17:28:15;10.55;;;7.20;;
21661;SDS011;10992;48.170;8.596;2022-11-23T17:30:47;11.30;;;7.50;;
21661;SDS011;10992;48.170;8.596;2022-11-23T17:33:15;10.80;;;6.97;;
21661;SDS011;10992;48.170;8.596;2022-11-23T17:35:41;13.13;;;8.63;;
21661;SDS011;10992;48.170;8.596;2022-11-23T17:38:11;12.85;;;7.75;;